createdAt,value
2022-11-06T00:03:01.246Z,100362.25
2022-11-06T00:07:57.753Z,100364.16
2022-11-06T00:12:54.096Z,100346.78
2022-11-06T00:17:50.756Z,100345.94
2022-11-06T00:22:47.123Z,100343.50
2022-11-06T00:27:43.823Z,100338.28
2022-11-06T00:32:40.541Z,100338.94
2022-11-06T00:37:36.957Z,100324.41
2022-11-06T00:42:33.371Z,100320.59
2022-11-06T00:47:29.715Z,100317.84
2022-11-06T00:52:26.090Z,100318.06
2022-11-06T00:57:22.440Z,100320.72
2022-11-06T01:02:19.632Z,100331.31
2022-11-06T01:07:16.108Z,100334.47
2022-11-06T01:12:13.923Z,100335.22
2022-11-06T01:17:11.121Z,100339.75
2022-11-06T01:22:07.593Z,100329.59
2022-11-06T01:32:20.683Z,100328.88
2022-11-06T01:37:17.032Z,100314.56
2022-11-06T01:42:14.917Z,100305.22
2022-11-06T01:47:37.667Z,100307.84
2022-11-06T01:52:34.646Z,100305.66
2022-11-06T01:57:31.062Z,100299.81
2022-11-06T02:02:27.510Z,100296.53
2022-11-06T02:07:23.950Z,100280.09
2022-11-06T02:12:38.869Z,100278.22
2022-11-06T02:17:38.219Z,100273.63
2022-11-06T02:22:43.034Z,100265.28
2022-11-06T02:27:44.515Z,100268.34
2022-11-06T02:32:45.486Z,100249.47
2022-11-06T02:37:45.867Z,100236.31
2022-11-06T02:42:48.726Z,100236.66
2022-11-06T02:47:50.421Z,100239.75
2022-11-06T02:53:02.774Z,100239.09
2022-11-06T02:58:05.971Z,100240.81
2022-11-06T03:03:31.642Z,100238.78
2022-11-06T03:08:46.578Z,100231.91
2022-11-06T03:13:48.445Z,100240.56
2022-11-06T03:19:02.714Z,100233.38
2022-11-06T03:24:10.592Z,100214.84
2022-11-06T03:29:14.422Z,100210.69
2022-11-06T03:34:15.757Z,100218.84
2022-11-06T03:39:17.029Z,100209.63
2022-11-06T03:44:17.747Z,100213.81
2022-11-06T03:49:21.875Z,100213.94
2022-11-06T03:54:23.469Z,100212.00
2022-11-06T03:59:23.421Z,100217.81
2022-11-06T04:04:49.060Z,100215.91
2022-11-06T04:10:11.699Z,100216.53
2022-11-06T04:15:12.721Z,100219.28
2022-11-06T04:20:36.058Z,100209.53
2022-11-06T04:26:09.250Z,100206.09
2022-11-06T04:31:28.262Z,100197.63
2022-11-06T04:36:33.438Z,100199.56
2022-11-06T04:42:07.845Z,100210.44
2022-11-06T04:47:07.786Z,100207.25
2022-11-06T04:52:08.363Z,100212.09
2022-11-06T04:57:04.763Z,100201.72
2022-11-06T05:02:01.796Z,100201.28
2022-11-06T05:06:58.266Z,100212.56
2022-11-06T05:11:54.598Z,100209.53
2022-11-06T05:16:50.999Z,100200.69
2022-11-06T05:22:05.751Z,100205.03
2022-11-06T05:27:02.122Z,100199.59
2022-11-06T05:31:58.566Z,100185.00
2022-11-06T05:36:54.947Z,100171.44
2022-11-06T05:41:51.304Z,100178.28
2022-11-06T05:46:49.624Z,100156.59
2022-11-06T05:51:46.585Z,100148.69
2022-11-06T05:56:43.087Z,100157.00
2022-11-06T06:01:39.539Z,100161.19
2022-11-06T06:06:36.577Z,100149.69
2022-11-06T06:11:32.964Z,100143.97
2022-11-06T06:16:29.321Z,100145.63
2022-11-06T06:21:25.661Z,100139.41
2022-11-06T06:26:22.014Z,100136.25
2022-11-06T06:31:20.174Z,100137.97
2022-11-06T06:36:16.738Z,100135.47
2022-11-06T06:41:13.260Z,100135.16
2022-11-06T06:46:09.918Z,100145.44
2022-11-06T06:51:07.915Z,100148.44
2022-11-06T06:56:04.829Z,100148.03
2022-11-06T07:01:03.152Z,100153.09
2022-11-06T07:05:59.714Z,100145.25
2022-11-06T07:11:08.235Z,100146.19
2022-11-06T07:16:05.748Z,100150.31
2022-11-06T07:21:05.549Z,100147.41
2022-11-06T07:26:02.730Z,100150.69
2022-11-06T07:31:01.258Z,100152.63
2022-11-06T07:36:02.255Z,100160.13
2022-11-06T07:41:01.873Z,100153.00
2022-11-06T07:45:59.858Z,100150.09
2022-11-06T07:50:57.307Z,100153.09
2022-11-06T07:55:55.470Z,100147.75
2022-11-06T08:00:54.255Z,100158.06
2022-11-06T08:05:50.931Z,100150.94
2022-11-06T08:10:47.723Z,100158.22
2022-11-06T08:15:44.432Z,100147.81
2022-11-06T08:20:41.137Z,100142.69
2022-11-06T08:25:37.923Z,100154.63
2022-11-06T08:30:34.320Z,100156.00
2022-11-06T08:35:31.450Z,100150.84
2022-11-06T08:40:30.945Z,100145.28
2022-11-06T08:45:27.803Z,100137.81
2022-11-06T08:50:24.187Z,100133.09
2022-11-06T08:55:20.558Z,100131.28
2022-11-06T09:00:17.001Z,100123.28
2022-11-06T09:05:13.450Z,100109.63
2022-11-06T09:10:09.908Z,100120.59
2022-11-06T09:15:07.315Z,100108.03
2022-11-06T09:20:03.908Z,100100.41
2022-11-06T09:25:04.523Z,100092.44
2022-11-06T09:30:01.140Z,100100.13
2022-11-06T09:34:57.566Z,100101.81
2022-11-06T09:39:53.943Z,100095.63
2022-11-06T09:45:10.614Z,100101.88
2022-11-06T09:50:15.045Z,100091.44
2022-11-06T09:55:20.435Z,100085.38
2022-11-06T10:00:17.928Z,100084.31
2022-11-06T10:05:32.003Z,100076.25
2022-11-06T10:10:45.871Z,100073.78
2022-11-06T10:15:54.850Z,100077.97
2022-11-06T10:20:58.478Z,100057.03
2022-11-06T10:26:00.850Z,100045.81
2022-11-06T10:31:13.807Z,100040.81
2022-11-06T10:36:34.000Z,100038.84
2022-11-06T10:41:35.869Z,100025.41
2022-11-06T10:46:40.064Z,100014.00
2022-11-06T10:51:58.576Z,100007.97
2022-11-06T10:57:22.331Z,100004.44
2022-11-06T11:02:32.605Z,99998.25
2022-11-06T11:07:33.599Z,99992.47
2022-11-06T11:12:32.854Z,99981.97
2022-11-06T11:17:29.227Z,99981.84
2022-11-06T11:22:31.951Z,99963.19
2022-11-06T11:27:32.853Z,99951.84
2022-11-06T11:32:31.080Z,99951.00
2022-11-06T11:37:31.296Z,99941.34
2022-11-06T11:42:30.141Z,99945.38
2022-11-06T11:47:26.493Z,99921.69
2022-11-06T11:52:23.110Z,99912.03
2022-11-06T11:57:23.629Z,99903.97
2022-11-06T12:03:04.960Z,99882.28
2022-11-06T12:08:01.827Z,99874.88
2022-11-06T12:13:01.294Z,99873.59
2022-11-06T12:18:03.292Z,99867.94
2022-11-06T12:23:02.062Z,99858.75
2022-11-06T12:28:01.738Z,99852.56
2022-11-06T12:33:14.511Z,99848.00
2022-11-06T12:38:35.269Z,99831.22
2022-11-06T12:43:44.363Z,99811.00
2022-11-06T12:48:53.936Z,99801.19
2022-11-06T12:54:28.084Z,99800.09
2022-11-06T12:59:58.589Z,99812.75
2022-11-06T13:05:17.507Z,99793.28
2022-11-06T13:10:23.220Z,99777.03
2022-11-06T13:15:28.427Z,99769.50
2022-11-06T13:20:30.021Z,99762.47
2022-11-06T13:25:39.372Z,99749.03
2022-11-06T13:30:38.341Z,99716.41
2022-11-06T13:35:37.595Z,99728.75
2022-11-06T13:40:39.797Z,99717.78
2022-11-06T13:45:48.211Z,99708.19
2022-11-06T13:50:55.171Z,99700.25
2022-11-06T13:56:15.900Z,99712.03
2022-11-06T14:01:21.488Z,99704.75
2022-11-06T14:06:24.123Z,99694.09
2022-11-06T14:11:26.860Z,99676.16
2022-11-06T14:16:23.225Z,99693.09
2022-11-06T14:21:25.411Z,99702.91
2022-11-06T14:26:43.853Z,99694.09
2022-11-06T14:32:10.525Z,99691.16
2022-11-06T14:37:18.790Z,99693.41
2022-11-06T14:42:17.129Z,99698.16
2022-11-06T14:47:26.612Z,99705.59
2022-11-06T14:52:24.935Z,99704.47
2022-11-06T14:57:34.496Z,99717.25
2022-11-06T15:02:34.631Z,99705.56
2022-11-06T15:08:08.340Z,99682.72
2022-11-06T15:13:16.928Z,99682.88
2022-11-06T15:18:24.805Z,99680.88
2022-11-06T15:23:30.819Z,99685.03
2022-11-06T15:28:31.969Z,99653.09
2022-11-06T15:33:36.733Z,99665.69
2022-11-06T15:38:43.666Z,99665.34
2022-11-06T15:43:40.642Z,99641.88
2022-11-06T15:48:37.241Z,99652.50
2022-11-06T15:53:38.269Z,99642.53
2022-11-06T15:58:38.129Z,99631.59
2022-11-06T16:03:55.964Z,99609.06
2022-11-06T16:08:52.804Z,99602.34
2022-11-06T16:13:49.532Z,99605.00
2022-11-06T16:18:46.418Z,99600.41
2022-11-06T16:23:52.824Z,99610.72
2022-11-06T16:28:51.352Z,99587.94
2022-11-06T16:33:56.031Z,99608.22
2022-11-06T16:38:53.900Z,99618.28
2022-11-06T16:44:31.341Z,99626.09
2022-11-06T16:49:33.707Z,99622.03
2022-11-06T16:54:31.387Z,99616.31
2022-11-06T16:59:27.764Z,99609.41
2022-11-06T17:04:26.494Z,99611.09
2022-11-06T17:09:22.818Z,99618.22
2022-11-06T17:14:20.974Z,99608.06
2022-11-06T17:19:19.113Z,99619.38
2022-11-06T17:24:36.051Z,99618.50
2022-11-06T17:29:33.582Z,99613.19
2022-11-06T17:34:30.000Z,99606.94
2022-11-06T17:39:26.418Z,99586.41
2022-11-06T17:44:22.875Z,99596.84
2022-11-06T17:49:19.337Z,99596.13
2022-11-06T17:54:17.975Z,99589.50
2022-11-06T17:59:14.415Z,99589.31
2022-11-06T18:04:10.833Z,99564.38
2022-11-06T18:09:07.912Z,99523.47
2022-11-06T18:14:04.370Z,99495.41
2022-11-06T18:19:01.719Z,99508.50
2022-11-06T18:23:58.103Z,99512.94
2022-11-06T18:28:54.721Z,99473.25
2022-11-06T18:33:51.104Z,99477.84
2022-11-06T18:38:47.600Z,99464.69
2022-11-06T18:43:44.736Z,99488.91
2022-11-06T18:48:41.490Z,99494.16
2022-11-06T18:53:39.324Z,99457.69
2022-11-06T18:58:36.223Z,99480.78
2022-11-06T19:03:33.103Z,99453.22
2022-11-06T19:08:29.838Z,99453.66
2022-11-06T19:13:26.273Z,99455.53
2022-11-06T19:18:22.861Z,99451.56
2022-11-06T19:23:19.302Z,99446.25
2022-11-06T19:28:17.166Z,99443.50
2022-11-06T19:33:14.074Z,99452.00
2022-11-06T19:38:10.679Z,99455.34
2022-11-06T19:43:08.423Z,99456.56
2022-11-06T19:48:05.256Z,99462.19
2022-11-06T19:53:01.646Z,99453.81
2022-11-06T19:57:58.045Z,99454.94
2022-11-06T20:02:54.418Z,99455.63
2022-11-06T20:07:50.776Z,99466.13
2022-11-06T20:12:47.179Z,99478.34
2022-11-06T20:17:43.587Z,99470.09
2022-11-06T20:22:39.952Z,99476.81
2022-11-06T20:27:36.432Z,99484.50
2022-11-06T20:32:33.805Z,99491.78
2022-11-06T20:37:30.234Z,99483.16
2022-11-06T20:42:26.649Z,99480.53
2022-11-06T20:47:23.020Z,99487.41
2022-11-06T20:52:19.397Z,99493.03
2022-11-06T20:57:16.548Z,99498.34
2022-11-06T21:02:13.322Z,99492.25
2022-11-06T21:07:09.909Z,99496.84
2022-11-06T21:12:07.171Z,99493.22
2022-11-06T21:17:03.710Z,99508.88
2022-11-06T21:22:00.814Z,99502.16
2022-11-06T21:26:57.269Z,99505.25
2022-11-06T21:31:54.483Z,99506.53
2022-11-06T21:36:51.013Z,99498.00
2022-11-06T21:41:47.651Z,99502.78
2022-11-06T21:46:45.801Z,99502.63
2022-11-06T21:51:42.482Z,99503.06
2022-11-06T21:56:40.129Z,99517.88
2022-11-06T22:01:37.740Z,99515.63
2022-11-06T22:06:34.636Z,99520.81
2022-11-06T22:11:34.923Z,99522.94
2022-11-06T22:16:36.272Z,99520.53
2022-11-06T22:21:34.762Z,99517.03
2022-11-06T22:26:32.513Z,99509.50
2022-11-06T22:31:29.875Z,99521.38
2022-11-06T22:36:26.964Z,99521.53
2022-11-06T22:41:24.925Z,99533.28
2022-11-06T22:46:23.059Z,99533.56
2022-11-06T22:51:28.746Z,99533.16
2022-11-06T22:56:26.515Z,99529.66
2022-11-06T23:01:25.468Z,99531.34
2022-11-06T23:06:22.697Z,99550.94
2022-11-06T23:11:19.171Z,99551.75
2022-11-06T23:16:39.265Z,99546.44
2022-11-06T23:21:35.689Z,99546.31
2022-11-06T23:26:32.120Z,99553.88
2022-11-06T23:31:28.642Z,99562.41
2022-11-06T23:36:25.152Z,99555.97
2022-11-06T23:41:39.959Z,99562.44
2022-11-06T23:46:36.379Z,99560.44
2022-11-06T23:51:32.745Z,99564.09
2022-11-06T23:56:29.199Z,99565.78
